createdAt,value
2023-04-14T00:01:17.005Z,75.20
2023-04-14T00:02:37.706Z,75.40
2023-04-14T00:03:58.847Z,75.20
2023-04-14T00:05:20.104Z,76.00
2023-04-14T00:06:40.579Z,76.00
2023-04-14T00:08:01.527Z,75.60
2023-04-14T00:09:22.088Z,75.60
2023-04-14T00:10:42.709Z,75.60
2023-04-14T00:12:03.386Z,75.90
2023-04-14T00:13:23.962Z,76.00
2023-04-14T00:14:46.346Z,75.90
2023-04-14T00:16:07.614Z,75.90
2023-04-14T00:17:28.050Z,75.50
2023-04-14T00:18:48.574Z,75.40
2023-04-14T00:20:10.148Z,75.40
2023-04-14T00:21:30.878Z,75.40
2023-04-14T00:22:51.685Z,75.50
2023-04-14T00:24:12.442Z,75.20
2023-04-14T00:25:33.240Z,75.30
2023-04-14T00:26:53.786Z,75.60
2023-04-14T00:28:14.412Z,75.30
2023-04-14T00:29:35.405Z,75.20
2023-04-14T00:30:57.714Z,75.20
2023-04-14T00:32:18.286Z,75.10
2023-04-14T00:33:38.853Z,75.50
2023-04-14T00:34:59.295Z,75.50
2023-04-14T00:36:19.663Z,75.50
2023-04-14T00:37:40.468Z,75.40
2023-04-14T00:39:02.968Z,75.80
2023-04-14T00:40:24.589Z,76.30
2023-04-14T00:41:48.575Z,76.10
2023-04-14T00:43:09.701Z,76.20
2023-04-14T00:44:31.319Z,76.20
2023-04-14T00:45:55.466Z,76.50
2023-04-14T00:47:21.090Z,76.80
2023-04-14T00:48:41.762Z,77.00
2023-04-14T00:50:09.342Z,77.90
2023-04-14T00:51:31.473Z,77.70
2023-04-14T00:52:53.025Z,77.70
2023-04-14T00:54:17.112Z,77.70
2023-04-14T00:55:44.389Z,78.00
2023-04-14T00:57:08.690Z,77.60
2023-04-14T00:58:30.303Z,77.40
2023-04-14T00:59:52.472Z,77.30
2023-04-14T01:01:13.412Z,77.20
2023-04-14T01:02:36.142Z,77.30
2023-04-14T01:03:52.605Z,77.30
2023-04-14T01:05:13.212Z,77.30
2023-04-14T01:06:33.905Z,77.30
2023-04-14T01:07:54.722Z,77.30
2023-04-14T01:09:15.721Z,77.30
2023-04-14T01:10:43.419Z,77.50
2023-04-14T01:12:12.394Z,77.60
2023-04-14T01:13:39.056Z,77.90
2023-04-14T01:15:07.620Z,78.60
2023-04-14T01:16:30.511Z,79.00
2023-04-14T01:17:57.092Z,78.90
2023-04-14T01:19:39.545Z,79.20
2023-04-14T01:21:05.754Z,79.30
2023-04-14T01:22:29.949Z,79.20
2023-04-14T01:24:03.997Z,79.30
2023-04-14T01:25:52.824Z,79.50
2023-04-14T01:27:24.721Z,79.60
2023-04-14T01:29:00.285Z,79.90
2023-04-14T01:30:37.527Z,80.00
2023-04-14T01:32:02.235Z,79.90
2023-04-14T01:33:24.269Z,80.00
2023-04-14T01:34:50.749Z,80.40
2023-04-14T01:36:14.299Z,80.30
2023-04-14T01:37:36.880Z,80.60
2023-04-14T01:38:58.265Z,80.80
2023-04-14T01:40:20.180Z,80.60
2023-04-14T01:41:45.070Z,80.30
2023-04-14T01:43:09.217Z,80.80
2023-04-14T01:44:30.193Z,80.90
2023-04-14T01:45:53.568Z,80.80
2023-04-14T01:47:17.813Z,80.90
2023-04-14T01:48:40.697Z,80.60
2023-04-14T01:50:03.302Z,80.90
2023-04-14T01:51:24.408Z,81.00
2023-04-14T01:52:45.469Z,80.70
2023-04-14T01:54:08.238Z,80.60
2023-04-14T01:55:29.047Z,80.30
2023-04-14T01:56:51.151Z,80.30
2023-04-14T01:58:13.016Z,80.30
2023-04-14T01:59:34.738Z,80.30
2023-04-14T02:00:56.050Z,80.50
2023-04-14T02:02:20.097Z,80.60
2023-04-14T02:03:41.605Z,80.60
2023-04-14T02:05:03.519Z,80.60
2023-04-14T02:06:24.804Z,80.90
2023-04-14T02:07:46.450Z,80.80
2023-04-14T02:09:07.658Z,80.90
2023-04-14T02:10:29.117Z,80.90
2023-04-14T02:11:50.174Z,81.00
2023-04-14T02:13:11.610Z,81.30
2023-04-14T02:14:33.783Z,81.40
2023-04-14T02:15:55.103Z,81.30
2023-04-14T02:17:18.408Z,81.50
2023-04-14T02:18:40.768Z,81.60
2023-04-14T02:20:02.227Z,81.90
2023-04-14T02:21:24.814Z,82.00
2023-04-14T02:22:45.504Z,82.00
2023-04-14T02:24:07.093Z,82.30
2023-04-14T02:25:32.488Z,82.30
2023-04-14T02:26:55.989Z,82.20
2023-04-14T02:28:20.731Z,81.80
2023-04-14T02:29:44.224Z,81.70
2023-04-14T02:31:07.807Z,81.70
2023-04-14T02:32:30.415Z,81.70
2023-04-14T02:33:53.892Z,81.70
2023-04-14T02:35:17.242Z,81.40
2023-04-14T02:36:40.254Z,81.30
2023-04-14T02:38:07.294Z,81.30
2023-04-14T02:39:30.330Z,81.40
2023-04-14T02:40:51.083Z,81.50
2023-04-14T02:42:13.836Z,81.40
2023-04-14T02:43:39.059Z,81.20
2023-04-14T02:45:03.469Z,81.10
2023-04-14T02:46:26.732Z,81.00
2023-04-14T02:47:53.123Z,81.30
2023-04-14T02:49:15.088Z,81.20
2023-04-14T02:50:36.363Z,81.30
2023-04-14T02:51:57.811Z,81.30
2023-04-14T02:53:21.185Z,81.70
2023-04-14T02:54:42.640Z,81.60
2023-04-14T02:56:03.617Z,81.50
2023-04-14T02:57:25.819Z,81.20
2023-04-14T02:58:47.038Z,81.00
2023-04-14T03:00:09.046Z,80.90
2023-04-14T03:01:29.260Z,80.70
2023-04-14T03:02:53.729Z,80.90
2023-04-14T03:04:15.693Z,81.10
2023-04-14T03:05:37.393Z,81.50
2023-04-14T03:06:59.340Z,81.40
2023-04-14T03:08:20.617Z,81.30
2023-04-14T03:09:41.189Z,81.40
2023-04-14T03:11:02.840Z,81.70
2023-04-14T03:12:24.092Z,81.60
2023-04-14T03:13:45.846Z,81.60
2023-04-14T03:15:08.080Z,81.90
2023-04-14T03:16:29.175Z,82.00
2023-04-14T03:17:51.927Z,82.20
2023-04-14T03:19:12.561Z,82.20
2023-04-14T03:20:33.512Z,82.50
2023-04-14T03:21:54.960Z,82.60
2023-04-14T03:23:15.528Z,82.60
2023-04-14T03:24:36.719Z,83.00
2023-04-14T03:25:57.819Z,82.80
2023-04-14T03:27:20.760Z,82.90
2023-04-14T03:28:42.066Z,82.60
2023-04-14T03:30:05.713Z,82.40
2023-04-14T03:31:31.222Z,82.40
2023-04-14T03:32:53.901Z,82.10
2023-04-14T03:34:15.619Z,82.20
2023-04-14T03:35:36.875Z,82.00
2023-04-14T03:36:58.686Z,81.80
2023-04-14T03:38:20.329Z,81.60
2023-04-14T03:39:42.955Z,81.40
2023-04-14T03:41:03.858Z,81.40
2023-04-14T03:42:25.071Z,81.50
2023-04-14T03:43:47.307Z,81.80
2023-04-14T03:45:09.365Z,82.00
2023-04-14T03:46:29.783Z,81.80
2023-04-14T03:47:53.026Z,81.60
2023-04-14T03:49:14.998Z,81.50
2023-04-14T03:50:35.164Z,81.30
2023-04-14T03:51:58.536Z,81.60
2023-04-14T03:53:20.059Z,81.40
2023-04-14T03:54:42.383Z,82.10
2023-04-14T03:56:03.623Z,82.60
2023-04-14T03:57:25.943Z,82.40
2023-04-14T03:58:46.779Z,82.60
2023-04-14T04:00:09.113Z,82.50
2023-04-14T04:01:31.031Z,82.80
2023-04-14T04:02:53.949Z,82.80
2023-04-14T04:04:14.834Z,82.90
2023-04-14T04:05:37.382Z,82.80
2023-04-14T04:06:59.114Z,83.00
2023-04-14T04:08:22.888Z,82.80
2023-04-14T04:09:43.593Z,82.80
2023-04-14T04:11:06.266Z,82.60
2023-04-14T04:12:27.886Z,82.70
2023-04-14T04:13:49.529Z,83.00
2023-04-14T04:15:10.550Z,83.30
2023-04-14T04:16:31.484Z,83.60
2023-04-14T04:17:54.187Z,83.90
2023-04-14T04:19:15.375Z,84.10
2023-04-14T04:20:37.088Z,84.00
2023-04-14T04:21:58.037Z,83.80
2023-04-14T04:23:19.275Z,83.60
2023-04-14T04:24:40.406Z,83.50
2023-04-14T04:26:01.583Z,83.70
2023-04-14T04:27:28.140Z,83.70
2023-04-14T04:28:49.234Z,83.60
2023-04-14T04:30:10.812Z,83.30
2023-04-14T04:31:31.847Z,83.50
2023-04-14T04:32:54.243Z,83.70
2023-04-14T04:34:15.993Z,84.00
2023-04-14T04:35:36.241Z,84.00
2023-04-14T04:36:56.538Z,84.00
2023-04-14T04:38:17.213Z,83.90
2023-04-14T04:39:37.923Z,83.80
2023-04-14T04:40:58.915Z,84.00
2023-04-14T04:42:19.400Z,83.80
2023-04-14T04:43:40.451Z,83.80
2023-04-14T04:45:00.961Z,83.50
2023-04-14T04:46:43.019Z,83.40
2023-04-14T04:48:05.948Z,83.40
2023-04-14T04:49:26.900Z,83.40
2023-04-14T04:50:47.808Z,83.50
2023-04-14T04:52:08.698Z,83.50
2023-04-14T04:53:29.545Z,83.50
2023-04-14T04:54:50.432Z,83.50
2023-04-14T04:56:10.998Z,83.60
2023-04-14T04:57:31.624Z,83.90
2023-04-14T04:58:52.395Z,83.90
2023-04-14T05:00:13.616Z,83.70
2023-04-14T05:01:34.376Z,84.20
2023-04-14T05:02:55.131Z,84.20
2023-04-14T05:04:17.274Z,84.00
2023-04-14T05:05:38.050Z,84.00
2023-04-14T05:06:58.952Z,83.70
2023-04-14T05:08:19.559Z,83.90
2023-04-14T05:09:40.415Z,83.90
2023-04-14T05:11:00.924Z,83.50
2023-04-14T05:12:21.784Z,83.70
2023-04-14T05:13:42.628Z,84.00
2023-04-14T05:15:03.600Z,84.00
2023-04-14T05:16:24.233Z,84.10
2023-04-14T05:17:44.722Z,83.80
2023-04-14T05:19:05.522Z,84.10
2023-04-14T05:20:27.823Z,84.10
2023-04-14T05:21:48.495Z,84.10
2023-04-14T05:23:09.380Z,84.00
2023-04-14T05:24:30.065Z,83.90
2023-04-14T05:25:50.838Z,83.70
2023-04-14T05:27:14.525Z,83.50
2023-04-14T05:28:35.215Z,83.30
2023-04-14T05:29:55.888Z,83.60
2023-04-14T05:31:16.764Z,83.60
2023-04-14T05:32:37.458Z,84.10
2023-04-14T05:33:58.103Z,84.10
2023-04-14T05:35:19.230Z,83.80
2023-04-14T05:36:41.258Z,83.40
2023-04-14T05:38:01.744Z,83.20
2023-04-14T05:39:22.454Z,83.30
2023-04-14T05:40:43.259Z,83.30
2023-04-14T05:42:04.385Z,83.30
2023-04-14T05:43:24.905Z,83.20
2023-04-14T05:44:46.244Z,83.10
2023-04-14T05:46:09.150Z,83.00
2023-04-14T05:47:29.798Z,82.70
2023-04-14T05:48:50.559Z,82.70
2023-04-14T05:50:11.912Z,82.90
2023-04-14T05:51:32.711Z,82.60
2023-04-14T05:52:55.326Z,82.40
2023-04-14T05:54:16.283Z,82.40
2023-04-14T05:55:37.212Z,82.40
2023-04-14T05:56:57.819Z,82.40
2023-04-14T05:58:18.536Z,82.20
2023-04-14T05:59:39.047Z,82.00
2023-04-14T06:00:59.786Z,82.10
2023-04-14T06:02:20.438Z,82.20
2023-04-14T06:03:41.054Z,81.70
2023-04-14T06:05:02.019Z,81.60
2023-04-14T06:06:22.580Z,82.30
2023-04-14T06:07:43.492Z,82.30
2023-04-14T06:09:05.570Z,82.10
2023-04-14T06:10:26.185Z,82.80
2023-04-14T06:11:46.608Z,82.90
2023-04-14T06:13:07.496Z,82.70
2023-04-14T06:14:28.356Z,83.30
2023-04-14T06:15:49.261Z,83.10
2023-04-14T06:17:09.606Z,82.70
2023-04-14T06:18:29.920Z,82.30
2023-04-14T06:19:50.571Z,82.30
2023-04-14T06:21:12.141Z,82.60
2023-04-14T06:22:32.599Z,82.40
2023-04-14T06:23:53.495Z,82.30
2023-04-14T06:25:15.685Z,81.80
2023-04-14T06:26:36.321Z,82.00
2023-04-14T06:27:56.871Z,82.30
2023-04-14T06:29:17.448Z,82.30
2023-04-14T06:30:38.236Z,81.80
2023-04-14T06:31:59.108Z,81.90
2023-04-14T06:33:19.862Z,82.00
2023-04-14T06:34:40.393Z,81.80
2023-04-14T06:36:02.161Z,81.70
2023-04-14T06:37:22.941Z,81.60
2023-04-14T06:38:43.728Z,81.70
2023-04-14T06:40:05.167Z,81.60
2023-04-14T06:41:27.802Z,81.30
2023-04-14T06:42:48.799Z,81.40
2023-04-14T06:44:09.654Z,81.30
2023-04-14T06:45:30.396Z,80.90
2023-04-14T06:46:51.198Z,80.90
2023-04-14T06:48:12.132Z,80.70
2023-04-14T06:49:33.189Z,80.70
2023-04-14T06:50:54.752Z,80.40
2023-04-14T06:52:15.220Z,80.70
2023-04-14T06:53:35.794Z,80.70
2023-04-14T06:54:56.336Z,80.60
2023-04-14T06:56:16.915Z,80.30
2023-04-14T06:57:38.964Z,80.10
2023-04-14T06:58:59.410Z,79.70
2023-04-14T07:00:20.734Z,79.70
2023-04-14T07:01:41.317Z,79.50
2023-04-14T07:03:02.437Z,79.30
2023-04-14T07:04:23.624Z,79.20
2023-04-14T07:05:44.343Z,79.10
2023-04-14T07:07:05.196Z,78.80
2023-04-14T07:08:25.810Z,78.80
2023-04-14T07:09:46.515Z,79.10
2023-04-14T07:11:08.941Z,78.90
2023-04-14T07:12:29.519Z,78.60
2023-04-14T07:13:51.455Z,78.40
2023-04-14T07:15:12.076Z,78.30
2023-04-14T07:16:32.748Z,78.00
2023-04-14T07:17:53.548Z,77.30
2023-04-14T07:19:14.190Z,77.20
2023-04-14T07:20:35.081Z,77.60
2023-04-14T07:21:56.009Z,77.50
2023-04-14T07:23:16.422Z,78.00
2023-04-14T07:24:38.096Z,77.70
2023-04-14T07:26:00.141Z,77.80
2023-04-14T07:27:20.969Z,77.70
2023-04-14T07:28:41.713Z,77.30
2023-04-14T07:30:04.081Z,76.80
2023-04-14T07:31:24.874Z,76.70
2023-04-14T07:32:45.926Z,76.30
2023-04-14T07:34:06.696Z,76.10
2023-04-14T07:35:27.619Z,75.80
2023-04-14T07:36:48.461Z,76.30
2023-04-14T07:38:09.020Z,75.60
2023-04-14T07:39:30.370Z,75.50
2023-04-14T07:40:51.376Z,75.30
2023-04-14T07:42:13.044Z,75.30
2023-04-14T07:43:33.982Z,75.00
2023-04-14T07:44:54.645Z,75.00
2023-04-14T07:46:16.637Z,75.10
2023-04-14T07:47:37.529Z,75.10
2023-04-14T07:48:58.358Z,74.90
2023-04-14T07:50:19.919Z,74.70
2023-04-14T07:51:40.759Z,74.30
2023-04-14T07:53:01.368Z,74.20
2023-04-14T07:54:22.261Z,75.30
2023-04-14T07:55:42.861Z,75.20
2023-04-14T07:57:03.676Z,75.30
2023-04-14T07:58:26.696Z,74.50
2023-04-14T07:59:49.062Z,74.40
2023-04-14T08:01:09.858Z,73.90
2023-04-14T08:02:31.941Z,74.00
2023-04-14T08:03:53.031Z,74.60
2023-04-14T08:05:13.532Z,74.70
2023-04-14T08:06:34.214Z,74.00
2023-04-14T08:07:55.112Z,73.20
2023-04-14T08:09:15.826Z,73.20
2023-04-14T08:10:37.902Z,73.30
2023-04-14T08:11:58.393Z,72.90
2023-04-14T08:13:18.939Z,73.20
2023-04-14T08:14:39.733Z,73.70
2023-04-14T08:16:00.727Z,72.70
2023-04-14T08:17:21.466Z,72.50
2023-04-14T08:18:43.150Z,72.90
2023-04-14T08:20:04.139Z,72.40
2023-04-14T08:21:24.584Z,71.90
2023-04-14T08:22:45.647Z,72.10
2023-04-14T08:24:06.781Z,72.10
2023-04-14T08:25:27.667Z,72.00
2023-04-14T08:26:48.204Z,71.20
2023-04-14T08:28:08.885Z,71.80
2023-04-14T08:29:29.581Z,71.90
2023-04-14T08:30:50.407Z,72.50
2023-04-14T08:32:11.128Z,72.60
2023-04-14T08:33:31.788Z,72.20
2023-04-14T08:35:39.046Z,72.20
2023-04-14T08:36:34.248Z,72.40
2023-04-14T08:37:54.813Z,71.10
2023-04-14T08:39:15.474Z,70.40
2023-04-14T08:40:37.547Z,70.10
2023-04-14T08:41:58.286Z,69.90
2023-04-14T08:43:19.037Z,69.70
2023-04-14T08:44:39.490Z,69.70
2023-04-14T08:46:00.812Z,69.90
2023-04-14T08:47:21.882Z,70.00
2023-04-14T08:48:42.379Z,70.80
2023-04-14T08:50:06.384Z,69.60
2023-04-14T08:51:31.192Z,69.00
2023-04-14T08:52:53.601Z,68.40
2023-04-14T08:54:15.724Z,68.50
2023-04-14T08:55:37.030Z,69.10
2023-04-14T08:56:57.966Z,69.60
2023-04-14T08:58:18.694Z,69.00
2023-04-14T08:59:39.535Z,68.80
2023-04-14T09:01:01.755Z,68.80
2023-04-14T09:02:22.548Z,67.80
2023-04-14T09:03:43.904Z,68.90
2023-04-14T09:05:06.979Z,69.00
2023-04-14T09:06:27.462Z,69.20
2023-04-14T09:07:48.409Z,68.20
2023-04-14T09:09:09.089Z,66.70
2023-04-14T09:10:30.064Z,66.90
2023-04-14T09:11:51.949Z,66.50
2023-04-14T09:13:13.161Z,66.40
2023-04-14T09:14:34.073Z,66.80
2023-04-14T09:15:54.955Z,67.10
2023-04-14T09:17:15.492Z,67.20
2023-04-14T09:18:36.672Z,67.70
2023-04-14T09:20:36.241Z,67.00
2023-04-14T09:21:53.330Z,66.70
2023-04-14T09:23:15.906Z,66.10
2023-04-14T09:24:36.669Z,65.80
2023-04-14T09:25:57.375Z,66.10
2023-04-14T09:27:18.097Z,65.40
2023-04-14T09:28:41.278Z,65.90
2023-04-14T09:30:02.805Z,64.40
2023-04-14T09:31:23.276Z,64.90
2023-04-14T09:34:15.714Z,64.90
2023-04-14T09:35:43.927Z,63.70
2023-04-14T09:37:06.970Z,63.90
2023-04-14T09:38:32.402Z,63.70
2023-04-14T09:39:53.687Z,63.40
2023-04-14T09:41:16.264Z,63.30
2023-04-14T09:42:40.422Z,63.40
2023-04-14T09:44:07.368Z,63.60
2023-04-14T09:45:41.188Z,64.00
2023-04-14T09:47:03.131Z,63.10
2023-04-14T09:48:23.719Z,62.40
2023-04-14T09:49:55.464Z,63.60
2023-04-14T09:51:16.064Z,61.30
2023-04-14T09:52:39.313Z,60.50
2023-04-14T09:54:02.274Z,60.90
2023-04-14T09:55:23.072Z,60.30
2023-04-14T09:56:45.773Z,61.00
2023-04-14T09:58:10.021Z,60.90
2023-04-14T09:59:31.338Z,60.70
2023-04-14T10:00:51.846Z,61.70
2023-04-14T10:02:12.331Z,62.20
2023-04-14T10:03:35.137Z,63.70
2023-04-14T10:05:03.947Z,62.30
2023-04-14T10:06:25.295Z,62.30
2023-04-14T10:07:47.679Z,62.80
2023-04-14T10:09:08.304Z,63.90
2023-04-14T10:10:28.967Z,63.00
2023-04-14T10:12:09.116Z,63.70
2023-04-14T10:13:30.636Z,64.10
2023-04-14T10:14:51.374Z,63.30
2023-04-14T10:16:12.147Z,63.90
2023-04-14T10:17:34.196Z,63.70
2023-04-14T10:18:55.708Z,64.00
2023-04-14T10:20:16.556Z,63.90
2023-04-14T10:21:37.409Z,64.30
2023-04-14T10:22:59.860Z,63.20
2023-04-14T10:24:20.652Z,62.70
2023-04-14T10:25:41.014Z,62.60
2023-04-14T10:27:02.373Z,61.70
2023-04-14T10:28:23.097Z,62.20
2023-04-14T10:29:43.819Z,61.70
2023-04-14T10:31:06.166Z,61.10
2023-04-14T10:32:35.390Z,61.30
2023-04-14T10:33:56.239Z,61.60
2023-04-14T10:35:17.663Z,60.30
2023-04-14T10:36:38.641Z,60.90
2023-04-14T10:38:00.918Z,61.30
2023-04-14T10:39:23.075Z,60.80
2023-04-14T10:40:45.968Z,60.90
2023-04-14T10:42:06.913Z,60.50
2023-04-14T10:43:28.178Z,59.70
2023-04-14T10:45:02.355Z,60.20
2023-04-14T10:46:23.090Z,60.20
2023-04-14T10:47:45.225Z,60.80
2023-04-14T10:49:05.428Z,60.70
2023-04-14T10:50:26.392Z,60.50
2023-04-14T10:51:49.762Z,59.20
2023-04-14T10:53:11.903Z,58.80
2023-04-14T10:54:53.447Z,58.70
2023-04-14T10:56:14.630Z,59.00
2023-04-14T10:57:41.108Z,59.20
2023-04-14T10:59:02.955Z,59.50
2023-04-14T11:00:26.126Z,60.10
2023-04-14T11:01:54.375Z,59.90
2023-04-14T11:03:17.398Z,58.70
2023-04-14T11:04:58.337Z,58.80
2023-04-14T11:06:48.320Z,58.20
2023-04-14T11:08:14.754Z,58.80
2023-04-14T11:09:35.553Z,58.90
2023-04-14T11:11:01.430Z,59.30
2023-04-14T11:12:25.851Z,59.20
2023-04-14T11:14:12.528Z,58.20
2023-04-14T11:15:52.100Z,58.40
2023-04-14T11:17:19.923Z,59.30
2023-04-14T11:18:42.702Z,58.60
2023-04-14T11:20:14.281Z,57.70
2023-04-14T11:21:48.508Z,58.70
2023-04-14T11:23:09.208Z,59.40
2023-04-14T11:24:31.702Z,56.50
2023-04-14T11:25:52.473Z,57.80
2023-04-14T11:27:13.439Z,57.40
2023-04-14T11:28:35.452Z,58.40
2023-04-14T11:29:56.141Z,57.40
2023-04-14T11:31:16.964Z,58.70
2023-04-14T11:32:46.193Z,57.00
2023-04-14T11:34:06.558Z,58.10
2023-04-14T11:35:28.312Z,58.60
2023-04-14T11:36:49.585Z,57.70
2023-04-14T11:38:11.323Z,56.60
2023-04-14T11:39:33.403Z,56.50
2023-04-14T11:40:54.562Z,58.40
2023-04-14T11:42:15.480Z,57.10
2023-04-14T11:43:37.664Z,58.30
2023-04-14T11:44:58.592Z,57.40
2023-04-14T11:46:20.089Z,58.20
2023-04-14T11:47:40.776Z,57.80
2023-04-14T11:49:01.452Z,58.30
2023-04-14T11:50:22.567Z,57.90
2023-04-14T11:51:43.000Z,57.90
2023-04-14T11:53:07.558Z,56.80
2023-04-14T11:54:36.422Z,57.80
2023-04-14T11:55:56.965Z,57.60
2023-04-14T11:57:18.300Z,57.10
2023-04-14T11:58:39.196Z,57.40
2023-04-14T11:59:59.753Z,58.60
2023-04-14T12:01:22.674Z,58.80
2023-04-14T12:02:43.929Z,57.40
2023-04-14T12:04:04.907Z,58.00
2023-04-14T12:05:26.072Z,56.50
2023-04-14T12:06:46.471Z,56.00
2023-04-14T12:08:08.232Z,56.50
2023-04-14T12:09:29.480Z,56.20
2023-04-14T12:10:51.765Z,56.50
2023-04-14T12:12:14.506Z,57.00
2023-04-14T12:13:40.308Z,58.40
2023-04-14T12:15:01.906Z,57.20
2023-04-14T12:16:23.811Z,56.60
2023-04-14T12:17:44.765Z,58.00
2023-04-14T12:19:05.534Z,55.30
2023-04-14T12:20:26.664Z,54.30
2023-04-14T12:21:51.477Z,54.40
2023-04-14T12:23:12.425Z,55.70
2023-04-14T12:24:36.712Z,56.20
2023-04-14T12:25:58.744Z,56.20
2023-04-14T12:27:19.980Z,55.50
2023-04-14T12:28:40.967Z,56.50
2023-04-14T12:30:01.560Z,56.40
2023-04-14T12:31:27.060Z,57.00
2023-04-14T12:32:47.666Z,55.50
2023-04-14T12:34:08.244Z,57.80
2023-04-14T12:35:34.053Z,57.10
2023-04-14T12:36:54.976Z,53.10
2023-04-14T12:38:15.603Z,52.50
2023-04-14T12:39:49.960Z,52.60
2023-04-14T12:41:21.816Z,52.50
2023-04-14T12:42:43.105Z,50.60
2023-04-14T12:44:14.449Z,48.20
2023-04-14T12:45:41.955Z,47.80
2023-04-14T12:47:02.628Z,50.30
2023-04-14T12:48:23.303Z,50.90
2023-04-14T12:49:44.274Z,50.20
2023-04-14T12:51:09.434Z,51.70
2023-04-14T12:52:35.431Z,50.80
2023-04-14T12:54:06.651Z,50.50
2023-04-14T12:55:28.599Z,48.10
2023-04-14T12:56:50.567Z,49.50
2023-04-14T12:58:11.110Z,49.20
2023-04-14T12:59:32.121Z,49.80
2023-04-14T13:00:52.611Z,49.20
2023-04-14T13:02:19.763Z,49.10
2023-04-14T13:03:42.464Z,51.70
2023-04-14T13:05:03.654Z,50.00
2023-04-14T13:06:25.241Z,51.10
2023-04-14T13:07:45.784Z,52.10
2023-04-14T13:09:06.679Z,50.80
2023-04-14T13:10:30.305Z,52.40
2023-04-14T13:11:52.572Z,51.40
2023-04-14T13:13:13.603Z,48.30
2023-04-14T13:14:34.165Z,48.80
2023-04-14T13:16:13.826Z,48.10
2023-04-14T13:17:36.097Z,48.00
2023-04-14T13:18:57.141Z,47.90
2023-04-14T13:20:17.982Z,48.40
2023-04-14T13:21:38.312Z,48.60
2023-04-14T13:22:59.228Z,49.50
2023-04-14T13:24:20.014Z,49.40
2023-04-14T13:25:40.915Z,50.20
2023-04-14T13:27:03.556Z,51.10
2023-04-14T13:28:24.647Z,51.50
2023-04-14T13:29:45.708Z,51.40
2023-04-14T13:31:06.430Z,52.80
2023-04-14T13:32:27.130Z,52.80
2023-04-14T13:33:47.774Z,52.70
2023-04-14T13:35:08.795Z,52.20
2023-04-14T13:36:29.369Z,51.70
2023-04-14T13:37:50.498Z,53.50
2023-04-14T13:39:11.283Z,53.30
2023-04-14T13:40:31.925Z,53.20
2023-04-14T13:41:52.758Z,52.70
2023-04-14T13:43:17.660Z,51.90
2023-04-14T13:44:38.632Z,52.20
2023-04-14T13:45:59.911Z,53.60
2023-04-14T13:47:20.644Z,54.40
2023-04-14T13:48:43.315Z,53.60
2023-04-14T13:50:04.497Z,52.60
2023-04-14T13:51:26.751Z,54.10
2023-04-14T13:52:47.601Z,53.70
2023-04-14T13:54:08.438Z,51.90
2023-04-14T13:55:28.866Z,51.20
2023-04-14T13:56:49.633Z,52.30
2023-04-14T13:58:10.363Z,52.60
2023-04-14T13:59:32.258Z,53.00
2023-04-14T14:00:53.140Z,53.10
2023-04-14T14:02:13.843Z,52.50
2023-04-14T14:03:34.717Z,52.60
2023-04-14T14:04:55.200Z,53.00
2023-04-14T14:06:16.068Z,53.30
2023-04-14T14:07:37.708Z,51.00
2023-04-14T14:09:04.163Z,51.70
2023-04-14T14:10:25.999Z,52.80
2023-04-14T14:11:46.682Z,51.70
2023-04-14T14:13:07.381Z,51.60
2023-04-14T14:14:28.022Z,51.20
2023-04-14T14:15:50.190Z,51.90
2023-04-14T14:17:11.107Z,50.80
2023-04-14T14:18:31.855Z,50.70
2023-04-14T14:19:52.503Z,50.60
2023-04-14T14:21:13.310Z,51.20
2023-04-14T14:22:33.939Z,52.60
2023-04-14T14:23:54.700Z,51.50
2023-04-14T14:25:19.340Z,51.30
2023-04-14T14:26:40.746Z,50.20
2023-04-14T14:28:01.560Z,50.70
2023-04-14T14:29:22.409Z,51.70
2023-04-14T14:30:43.249Z,51.90
2023-04-14T14:32:05.635Z,51.70
2023-04-14T14:33:25.904Z,52.50
2023-04-14T14:34:47.034Z,53.40
2023-04-14T14:36:07.693Z,52.60
2023-04-14T14:37:28.650Z,52.40
2023-04-14T14:38:49.545Z,52.40
2023-04-14T14:40:11.075Z,52.90
2023-04-14T14:41:31.585Z,51.30
2023-04-14T14:42:52.045Z,51.80
2023-04-14T14:44:12.854Z,52.70
2023-04-14T14:45:33.828Z,52.80
2023-04-14T14:46:55.137Z,51.90
2023-04-14T14:48:17.418Z,52.10
2023-04-14T14:49:46.115Z,51.90
2023-04-14T14:51:13.603Z,51.70
2023-04-14T14:52:34.506Z,50.00
2023-04-14T14:54:04.192Z,49.40
2023-04-14T14:55:29.961Z,50.70
2023-04-14T14:56:50.393Z,51.70
2023-04-14T14:58:11.233Z,50.70
2023-04-14T14:59:32.092Z,51.10
2023-04-14T15:00:53.186Z,51.40
2023-04-14T15:02:13.892Z,49.80
2023-04-14T15:03:36.331Z,49.90
2023-04-14T15:04:56.900Z,50.70
2023-04-14T15:06:17.893Z,51.10
2023-04-14T15:07:38.585Z,50.30
2023-04-14T15:08:59.695Z,51.00
2023-04-14T15:10:20.267Z,50.30
2023-04-14T15:11:40.983Z,50.20
2023-04-14T15:13:01.828Z,51.60
2023-04-14T15:14:22.564Z,51.70
2023-04-14T15:15:43.288Z,51.90
2023-04-14T15:17:04.183Z,53.40
2023-04-14T15:18:24.650Z,51.20
2023-04-14T15:19:47.028Z,51.50
2023-04-14T15:21:07.522Z,49.60
2023-04-14T15:22:28.265Z,48.80
2023-04-14T15:23:49.004Z,49.90
2023-04-14T15:25:10.079Z,49.00
2023-04-14T15:26:30.496Z,49.40
2023-04-14T15:27:51.496Z,49.10
2023-04-14T15:29:12.079Z,49.00
2023-04-14T15:30:32.728Z,49.80
2023-04-14T15:31:53.539Z,49.70
2023-04-14T15:33:14.545Z,49.90
2023-04-14T15:34:35.435Z,48.40
2023-04-14T15:35:57.393Z,48.60
2023-04-14T15:37:17.855Z,49.90
2023-04-14T15:38:38.658Z,48.70
2023-04-14T15:39:59.478Z,49.10
2023-04-14T15:41:20.323Z,48.70
2023-04-14T15:42:40.935Z,48.10
2023-04-14T15:44:01.697Z,48.60
2023-04-14T15:45:22.451Z,48.80
2023-04-14T15:46:43.017Z,49.60
2023-04-14T15:48:04.080Z,48.40
2023-04-14T15:49:24.707Z,50.00
2023-04-14T15:50:46.198Z,49.70
2023-04-14T15:52:07.788Z,49.50
2023-04-14T15:53:28.447Z,49.90
2023-04-14T15:54:49.092Z,50.40
2023-04-14T15:56:09.728Z,48.30
2023-04-14T15:57:33.232Z,47.60
2023-04-14T15:58:53.732Z,48.40
2023-04-14T16:00:15.083Z,47.10
2023-04-14T16:01:35.397Z,48.80
2023-04-14T16:02:56.434Z,48.10
2023-04-14T16:04:17.064Z,49.30
2023-04-14T16:05:37.623Z,49.10
2023-04-14T16:06:58.171Z,47.60
2023-04-14T16:08:20.019Z,48.30
2023-04-14T16:09:40.852Z,49.10
2023-04-14T16:11:01.736Z,49.00
2023-04-14T16:12:23.376Z,50.20
2023-04-14T16:13:44.000Z,50.60
2023-04-14T16:15:07.238Z,50.10
2023-04-14T16:16:28.175Z,50.50
2023-04-14T16:17:48.740Z,49.60
2023-04-14T16:19:09.513Z,51.80
2023-04-14T16:20:30.105Z,51.30
2023-04-14T16:21:50.702Z,50.50
2023-04-14T16:23:11.481Z,52.00
2023-04-14T16:24:33.636Z,52.10
2023-04-14T16:25:54.165Z,51.40
2023-04-14T16:27:14.936Z,51.50
2023-04-14T16:28:35.949Z,51.40
2023-04-14T16:29:56.975Z,51.20
2023-04-14T16:31:17.885Z,51.80
2023-04-14T16:32:38.831Z,51.70
2023-04-14T16:33:59.532Z,51.80
2023-04-14T16:35:20.238Z,52.30
2023-04-14T16:36:41.030Z,54.50
2023-04-14T16:38:01.850Z,52.70
2023-04-14T16:39:22.678Z,52.10
2023-04-14T16:40:45.013Z,52.00
2023-04-14T16:42:06.856Z,52.30
2023-04-14T16:43:28.201Z,52.10
2023-04-14T16:44:49.212Z,52.40
2023-04-14T16:46:09.826Z,52.60
2023-04-14T16:47:30.773Z,52.80
2023-04-14T16:48:51.558Z,52.60
2023-04-14T16:50:12.195Z,51.90
2023-04-14T16:51:32.920Z,52.40
2023-04-14T16:52:54.007Z,52.50
2023-04-14T16:54:14.566Z,52.60
2023-04-14T16:55:35.122Z,54.70
2023-04-14T16:56:57.221Z,53.90
2023-04-14T16:58:17.761Z,53.10
2023-04-14T16:59:38.694Z,53.10
2023-04-14T17:00:59.432Z,52.70
2023-04-14T17:02:20.408Z,53.90
2023-04-14T17:03:41.141Z,53.50
2023-04-14T17:05:01.804Z,53.70
2023-04-14T17:06:22.466Z,53.20
2023-04-14T17:07:43.359Z,53.50
2023-04-14T17:09:04.087Z,53.40
2023-04-14T17:10:24.496Z,53.90
2023-04-14T17:11:45.250Z,53.40
2023-04-14T17:13:07.314Z,53.70
2023-04-14T17:14:27.798Z,54.60
2023-04-14T17:15:55.664Z,55.60
2023-04-14T17:17:19.339Z,54.80
2023-04-14T17:18:40.249Z,54.80
2023-04-14T17:20:00.728Z,54.30
2023-04-14T17:21:21.531Z,54.00
2023-04-14T17:22:42.830Z,54.70
2023-04-14T17:24:04.141Z,53.40
2023-04-14T17:25:24.615Z,54.50
2023-04-14T17:26:45.194Z,53.10
2023-04-14T17:28:07.259Z,54.60
2023-04-14T17:29:28.026Z,55.90
2023-04-14T17:30:48.446Z,55.80
2023-04-14T17:32:09.138Z,54.90
2023-04-14T17:33:29.615Z,55.10
2023-04-14T17:34:51.095Z,55.70
2023-04-14T17:36:13.721Z,56.50
2023-04-14T17:37:34.921Z,56.20
2023-04-14T17:39:07.072Z,54.90
2023-04-14T17:40:27.708Z,55.60